Time;durP1;ratioP1;P1;durP2;ratioP2;P2;SDS_P1;SDS_P2;PMS_P1;PMS_P2;Temp;Humidity;BMP_temperature;BMP_pressure;BME280_temperature;BME280_humidity;BME280_pressure;Samples;Min_cycle;Max_cycle;Signal;HPM_P1;HPM_P2
2020/12/25 00:00:25;;;;;;;0.38;0.30;;;3.90;93.10;;;;;;5094980;28;20043;-75
2020/12/25 00:02:52;;;;;;;0.93;0.38;;;3.80;93.10;;;;;;5113166;28;20035;-75
2020/12/25 00:05:18;;;;;;;0.65;0.20;;;3.80;93.10;;;;;;5113529;28;20031;-75
2020/12/25 00:07:44;;;;;;;0.20;0.20;;;3.80;93.10;;;;;;5113400;28;20089;-75
2020/12/25 00:10:09;;;;;;;0.70;0.30;;;3.80;93.20;;;;;;5113163;28;20093;-72
2020/12/25 00:12:35;;;;;;;0.80;0.20;;;3.70;93.20;;;;;;5094796;28;20113;-73
2020/12/25 00:15:01;;;;;;;0.20;0.20;;;3.70;93.20;;;;;;5113229;28;20085;-73
2020/12/25 00:17:27;;;;;;;0.77;0.28;;;3.70;93.20;;;;;;5112790;28;20042;-73
2020/12/25 00:19:52;;;;;;;1.95;0.50;;;3.60;93.20;;;;;;5113010;28;20040;-73
2020/12/25 00:22:18;;;;;;;0.30;0.22;;;3.60;93.20;;;;;;5094619;28;20042;-73
2020/12/25 00:24:44;;;;;;;1.25;0.25;;;3.60;93.20;;;;;;5112488;28;20047;-73
2020/12/25 00:27:09;;;;;;;0.20;0.20;;;3.70;93.30;;;;;;5112804;28;20560;-73
2020/12/25 00:29:35;;;;;;;0.30;0.25;;;3.50;93.20;;;;;;5094290;28;20078;-72
2020/12/25 00:32:01;;;;;;;0.65;0.20;;;3.50;93.30;;;;;;5113121;28;20043;-73
2020/12/25 00:34:26;;;;;;;1.45;0.32;;;3.50;93.30;;;;;;5112728;28;20169;-72
2020/12/25 00:36:52;;;;;;;0.85;0.20;;;3.40;93.30;;;;;;5094424;28;20065;-73
2020/12/25 00:39:18;;;;;;;0.55;0.20;;;3.50;93.30;;;;;;5094338;28;20122;-73
2020/12/25 00:41:48;;;;;;;0.10;0.10;;;3.40;93.30;;;;;;5112956;28;20043;-73
2020/12/25 00:44:14;;;;;;;0.73;0.30;;;3.50;93.30;;;;;;5094138;28;20397;-73
2020/12/25 00:46:41;;;;;;;0.85;0.30;;;3.50;93.30;;;;;;5112890;28;20046;-73
2020/12/25 00:49:07;;;;;;;0.25;0.10;;;3.40;93.30;;;;;;5112260;28;20044;-73
2020/12/25 00:51:33;;;;;;;0.13;0.10;;;3.40;93.30;;;;;;5094152;28;20589;-73
2020/12/25 00:53:59;;;;;;;0.88;0.13;;;3.30;93.30;;;;;;5112230;28;20046;-73
2020/12/25 00:56:24;;;;;;;0.28;0.20;;;3.30;93.30;;;;;;5112154;28;20050;-73
2020/12/25 00:58:50;;;;;;;0.30;0.20;;;3.30;93.30;;;;;;5112630;28;20452;-73
2020/12/25 01:01:16;;;;;;;0.40;0.20;;;3.30;93.30;;;;;;5112065;28;20487;-73
2020/12/25 01:03:44;;;;;;;2.05;0.30;;;3.30;93.30;;;;;;5112355;28;20127;-73
2020/12/25 01:06:11;;;;;;;0.40;0.25;;;3.30;93.20;;;;;;5112243;28;20042;-73
2020/12/25 01:08:37;;;;;;;0.10;0.10;;;3.30;93.20;;;;;;5111922;28;20438;-72
2020/12/25 01:11:04;;;;;;;3.05;0.40;;;3.20;93.20;;;;;;5093639;28;20499;-73
2020/12/25 01:13:31;;;;;;;0.55;0.20;;;3.10;93.20;;;;;;5093897;28;20046;-73
2020/12/25 01:16:03;;;;;;;1.92;0.40;;;3.20;93.30;;;;;;5093919;28;20036;-73
2020/12/25 01:18:29;;;;;;;;;;;3.10;93.30;;;;;;5112895;28;20051;-73
2020/12/25 01:20:54;;;;;;;0.32;0.22;;;3.20;93.30;;;;;;5112476;28;19908;-73
2020/12/25 01:23:20;;;;;;;0.20;0.20;;;3.20;93.30;;;;;;5111938;28;20036;-73
2020/12/25 01:25:46;;;;;;;0.20;0.20;;;3.10;93.20;;;;;;5112092;28;20127;-73
2020/12/25 01:28:11;;;;;;;0.38;0.20;;;3.10;93.20;;;;;;5111788;28;20050;-72
2020/12/25 01:30:37;;;;;;;0.32;0.30;;;3.20;93.30;;;;;;5111896;28;20064;-72
2020/12/25 01:33:03;;;;;;;0.85;0.20;;;3.20;93.20;;;;;;5093644;28;20093;-73
2020/12/25 01:35:28;;;;;;;0.45;0.35;;;3.10;93.50;;;;;;5111839;28;20078;-73
2020/12/25 01:37:54;;;;;;;0.47;0.30;;;3.10;93.20;;;;;;5111866;28;20036;-72
2020/12/25 01:40:20;;;;;;;0.93;0.30;;;3.10;93.20;;;;;;5111779;28;20036;-73
2020/12/25 01:42:45;;;;;;;1.02;0.20;;;3.10;93.30;;;;;;5111574;28;20543;-73
2020/12/25 01:45:11;;;;;;;3.88;0.35;;;3.00;93.30;;;;;;5111538;28;20046;-73
2020/12/25 01:47:37;;;;;;;1.05;0.30;;;3.00;93.30;;;;;;5112124;28;20097;-73
2020/12/25 01:50:03;;;;;;;0.35;0.10;;;3.00;93.30;;;;;;5111427;28;20097;-73
2020/12/25 01:52:30;;;;;;;0.20;0.17;;;3.00;93.40;;;;;;5114422;28;20043;-73
2020/12/25 01:54:56;;;;;;;0.63;0.28;;;3.10;93.40;;;;;;5097073;28;20078;-73
2020/12/25 01:57:23;;;;;;;0.57;0.30;;;3.00;93.30;;;;;;5114840;28;20046;-73
2020/12/25 01:59:51;;;;;;;0.45;0.20;;;3.00;93.30;;;;;;5114847;28;20039;-73
2020/12/25 02:02:16;;;;;;;0.38;0.20;;;3.10;93.30;;;;;;5115014;28;20044;-73
2020/12/25 02:04:42;;;;;;;0.10;0.10;;;3.00;93.30;;;;;;5115082;28;20396;-73
2020/12/25 02:07:08;;;;;;;1.02;0.30;;;3.10;93.30;;;;;;5115529;28;20046;-73
2020/12/25 02:09:34;;;;;;;0.28;0.10;;;3.00;93.30;;;;;;5114935;28;20043;-72
2020/12/25 02:11:59;;;;;;;0.20;0.20;;;3.00;93.30;;;;;;5115099;28;20436;-73
2020/12/25 02:14:25;;;;;;;0.95;0.30;;;3.00;93.30;;;;;;5114672;28;20138;-73
2020/12/25 02:16:51;;;;;;;1.58;0.20;;;3.00;93.20;;;;;;5114704;28;20046;-73
2020/12/25 02:19:16;;;;;;;2.63;0.30;;;3.00;93.20;;;;;;5114569;28;20035;-72
2020/12/25 02:21:42;;;;;;;0.63;0.25;;;3.10;93.20;;;;;;5115202;28;20359;-74
2020/12/25 02:24:08;;;;;;;1.48;0.43;;;3.10;93.20;;;;;;5114503;28;20078;-73
2020/12/25 02:26:35;;;;;;;1.83;0.43;;;3.10;93.20;;;;;;5114463;28;20126;-72
2020/12/25 02:29:02;;;;;;;0.65;0.20;;;3.00;93.20;;;;;;5114441;28;20100;-73
2020/12/25 02:31:28;;;;;;;0.70;0.30;;;3.10;93.20;;;;;;5114921;28;20390;-75
2020/12/25 02:33:53;;;;;;;0.85;0.30;;;3.00;93.20;;;;;;5114578;28;20092;-73
2020/12/25 02:36:19;;;;;;;0.10;0.10;;;3.10;93.20;;;;;;5096440;28;20039;-73
2020/12/25 02:38:44;;;;;;;0.30;0.13;;;3.10;93.20;;;;;;5114539;28;20043;-73
2020/12/25 02:41:10;;;;;;;0.47;0.20;;;3.00;93.20;;;;;;5114608;28;20393;-72
2020/12/25 02:43:36;;;;;;;1.13;0.20;;;3.10;93.20;;;;;;5114724;28;20035;-73
2020/12/25 02:46:02;;;;;;;1.00;0.20;;;3.10;93.20;;;;;;5114132;28;20070;-73
2020/12/25 02:48:27;;;;;;;1.90;0.47;;;3.10;93.20;;;;;;5095992;28;20071;-73
2020/12/25 02:50:53;;;;;;;2.05;0.40;;;3.10;93.20;;;;;;5114221;28;20122;-73
2020/12/25 02:53:19;;;;;;;0.68;0.20;;;3.10;93.10;;;;;;5114058;28;20063;-73
2020/12/25 02:55:44;;;;;;;0.22;0.13;;;3.10;93.20;;;;;;5114580;28;20123;-73
2020/12/25 02:58:10;;;;;;;0.17;0.17;;;3.20;93.20;;;;;;5114367;28;20062;-73
2020/12/25 03:00:36;;;;;;;0.17;0.17;;;3.20;93.10;;;;;;5095825;28;20090;-73
2020/12/25 03:03:02;;;;;;;0.25;0.20;;;3.20;93.10;;;;;;5113914;28;20036;-73
2020/12/25 03:05:27;;;;;;;0.25;0.20;;;3.10;93.10;;;;;;5113995;28;20042;-74
2020/12/25 03:07:53;;;;;;;0.70;0.15;;;3.10;93.10;;;;;;5114301;28;20043;-73
2020/12/25 03:10:19;;;;;;;2.53;0.30;;;3.10;93.10;;;;;;5095543;28;20040;-72
2020/12/25 03:12:44;;;;;;;2.17;0.20;;;3.00;93.10;;;;;;5114440;28;20473;-73
2020/12/25 03:15:10;;;;;;;1.27;0.20;;;3.00;93.20;;;;;;5113987;28;20095;-73
2020/12/25 03:17:36;;;;;;;0.30;0.10;;;3.00;93.30;;;;;;5095609;28;20046;-73
2020/12/25 03:20:01;;;;;;;0.47;0.30;;;3.00;93.30;;;;;;5113836;28;20063;-72
2020/12/25 03:22:27;;;;;;;0.75;0.22;;;2.90;93.30;;;;;;5114224;28;20036;-73
2020/12/25 03:24:53;;;;;;;0.28;0.20;;;3.00;93.30;;;;;;5095434;28;20047;-73
2020/12/25 03:27:18;;;;;;;0.50;0.20;;;3.00;93.30;;;;;;5095544;28;20055;-73
2020/12/25 03:29:44;;;;;;;0.85;0.20;;;3.00;93.30;;;;;;5114113;28;20485;-73
2020/12/25 03:32:10;;;;;;;0.08;0.08;;;3.00;93.30;;;;;;5113459;28;20050;-73
2020/12/25 03:34:35;;;;;;;0.20;0.10;;;3.00;93.30;;;;;;5113355;28;20055;-73
2020/12/25 03:37:01;;;;;;;1.23;0.20;;;3.00;93.60;;;;;;5095095;28;20039;-75
2020/12/25 03:39:27;;;;;;;1.30;0.20;;;3.00;93.30;;;;;;5095139;28;20043;-74
2020/12/25 03:41:52;;;;;;;0.50;0.25;;;3.00;93.30;;;;;;5113325;28;20046;-74
2020/12/25 03:44:19;;;;;;;0.10;0.10;;;3.00;93.20;;;;;;5113395;28;20040;-74
2020/12/25 03:46:45;;;;;;;0.00;0.00;;;3.10;93.20;;;;;;5095027;28;20093;-74
2020/12/25 03:49:11;;;;;;;0.10;0.08;;;3.10;93.10;;;;;;5113477;28;20147;-74
2020/12/25 03:51:37;;;;;;;0.20;0.20;;;3.20;93.20;;;;;;5095032;28;20074;-74
2020/12/25 03:54:03;;;;;;;0.15;0.15;;;3.20;93.20;;;;;;5113209;28;20085;-74
2020/12/25 03:56:30;;;;;;;0.10;0.10;;;3.20;93.10;;;;;;5113175;28;20040;-74
2020/12/25 03:58:56;;;;;;;0.32;0.10;;;3.30;93.10;;;;;;5113339;28;20070;-74
2020/12/25 04:01:22;;;;;;;0.05;0.00;;;3.30;93.00;;;;;;5113143;28;20039;-74
2020/12/25 04:03:47;;;;;;;0.10;0.10;;;3.40;93.00;;;;;;5095291;28;20082;-72
2020/12/25 04:06:13;;;;;;;1.65;0.20;;;3.30;93.00;;;;;;5112889;28;20088;-72
2020/12/25 04:08:39;;;;;;;0.10;0.10;;;3.20;93.00;;;;;;5113389;28;20385;-72
2020/12/25 04:11:05;;;;;;;0.60;0.15;;;3.20;93.00;;;;;;5112900;28;20055;-72
2020/12/25 04:13:32;;;;;;;0.60;0.20;;;3.20;93.00;;;;;;5112707;28;20046;-75
2020/12/25 04:16:00;;;;;;;0.10;0.10;;;3.20;93.10;;;;;;5112929;28;20037;-74
2020/12/25 04:18:26;;;;;;;0.05;0.05;;;3.10;93.00;;;;;;5112765;28;20374;-75
2020/12/25 04:20:52;;;;;;;0.08;0.08;;;3.10;93.10;;;;;;5112689;28;20065;-75
2020/12/25 04:23:17;;;;;;;0.20;0.10;;;3.20;93.10;;;;;;5113062;28;20071;-74
2020/12/25 04:25:43;;;;;;;0.15;0.10;;;3.10;93.10;;;;;;5113215;28;20444;-74
2020/12/25 04:28:08;;;;;;;0.22;0.10;;;3.00;93.10;;;;;;5112800;28;20392;-74
2020/12/25 04:30:34;;;;;;;0.10;0.10;;;3.00;93.20;;;;;;5112680;28;20085;-74
2020/12/25 04:33:00;;;;;;;0.20;0.10;;;2.90;93.20;;;;;;5112670;28;20035;-74
2020/12/25 04:35:25;;;;;;;0.10;0.10;;;2.90;93.20;;;;;;5094521;28;20378;-74
2020/12/25 04:37:51;;;;;;;0.10;0.10;;;2.90;93.20;;;;;;5113195;28;20126;-74
2020/12/25 04:40:17;;;;;;;0.22;0.08;;;2.90;93.30;;;;;;5113153;28;20036;-74
2020/12/25 04:42:50;;;;;;;0.30;0.10;;;2.90;93.30;;;;;;5113040;28;20096;-74
2020/12/25 04:45:17;;;;;;;0.10;0.10;;;2.90;93.30;;;;;;5077348;28;20035;-74
2020/12/25 04:47:45;;;;;;;0.00;0.00;;;2.80;93.30;;;;;;5094198;28;20050;-74
2020/12/25 04:50:12;;;;;;;0.10;0.10;;;2.80;93.30;;;;;;5112974;28;20048;-74
2020/12/25 04:52:37;;;;;;;0.00;0.00;;;2.70;93.30;;;;;;5112922;28;20046;-74
2020/12/25 04:55:04;;;;;;;0.10;0.10;;;2.80;93.30;;;;;;5112146;28;20051;-74
2020/12/25 04:57:29;;;;;;;0.22;0.08;;;2.70;93.30;;;;;;5093873;28;20117;-74
2020/12/25 04:59:55;;;;;;;0.20;0.10;;;2.70;93.40;;;;;;5093989;28;20067;-74
2020/12/25 05:02:21;;;;;;;0.15;0.10;;;2.70;93.40;;;;;;5112224;28;20036;-74
2020/12/25 05:04:47;;;;;;;0.17;0.10;;;2.80;93.40;;;;;;5113003;28;20044;-74
2020/12/25 05:07:14;;;;;;;1.23;0.10;;;2.70;93.50;;;;;;5113077;28;20035;-74
2020/12/25 05:09:40;;;;;;;0.00;0.00;;;2.70;93.40;;;;;;5113082;28;20471;-74
2020/12/25 05:12:11;;;;;;;0.55;0.10;;;2.70;93.40;;;;;;5112388;28;20036;-74
2020/12/25 05:14:41;;;;;;;0.10;0.10;;;2.70;93.40;;;;;;5112387;28;20130;-74
2020/12/25 05:17:10;;;;;;;0.10;0.10;;;2.70;93.40;;;;;;5112743;28;20035;-74
2020/12/25 05:19:40;;;;;;;0.40;0.10;;;2.70;93.40;;;;;;5112220;28;20148;-74
2020/12/25 05:22:07;;;;;;;0.05;0.05;;;2.70;93.40;;;;;;5094253;28;20433;-74
2020/12/25 05:24:38;;;;;;;0.05;0.03;;;2.70;93.40;;;;;;5112145;28;20126;-74
2020/12/25 05:27:11;;;;;;;0.00;0.00;;;2.70;93.40;;;;;;5113877;28;20070;-74
2020/12/25 05:29:38;;;;;;;0.40;0.17;;;2.80;93.40;;;;;;5116029;28;20048;-74
2020/12/25 05:32:05;;;;;;;0.10;0.10;;;2.80;93.40;;;;;;5115673;28;20127;-74
2020/12/25 05:34:33;;;;;;;0.15;0.10;;;2.80;93.30;;;;;;5116155;28;20039;-74
2020/12/25 05:37:02;;;;;;;0.00;0.00;;;2.70;93.30;;;;;;5116230;28;20060;-74
2020/12/25 05:39:30;;;;;;;0.10;0.10;;;2.80;93.30;;;;;;5116155;28;20046;-75
2020/12/25 05:41:58;;;;;;;0.08;0.08;;;2.70;93.30;;;;;;5115542;28;20173;-75
2020/12/25 05:44:25;;;;;;;0.00;0.00;;;2.70;93.40;;;;;;5115666;28;20067;-74
2020/12/25 05:46:51;;;;;;;0.00;0.00;;;2.70;93.40;;;;;;5097956;28;20046;-75
2020/12/25 05:49:16;;;;;;;0.55;0.00;;;2.70;93.40;;;;;;5097273;28;20039;-74
2020/12/25 05:51:49;;;;;;;0.10;0.10;;;2.80;93.40;;;;;;5115375;28;20035;-74
2020/12/25 05:54:24;;;;;;;0.00;0.00;;;2.60;93.40;;;;;;5115186;28;20432;-74
2020/12/25 05:56:52;;;;;;;0.00;0.00;;;2.60;93.40;;;;;;5115493;28;20528;-74
2020/12/25 05:59:26;;;;;;;0.00;0.00;;;2.60;93.40;;;;;;5115381;28;20562;-74
2020/12/25 06:01:55;;;;;;;0.00;0.00;;;2.70;93.40;;;;;;5115407;28;20035;-74
2020/12/25 06:04:22;;;;;;;0.00;0.00;;;2.60;93.50;;;;;;5096774;28;20118;-75
2020/12/25 06:06:49;;;;;;;0.25;0.00;;;2.60;93.50;;;;;;5115239;28;20498;-74
2020/12/25 06:09:18;;;;;;;0.10;0.10;;;2.60;93.50;;;;;;5115146;28;20050;-74
2020/12/25 06:11:48;;;;;;;0.10;0.10;;;2.60;93.50;;;;;;5097245;28;20048;-74
2020/12/25 06:14:14;;;;;;;0.00;0.00;;;2.60;93.50;;;;;;5114952;28;20043;-74
2020/12/25 06:16:49;;;;;;;0.20;0.10;;;2.60;93.50;;;;;;5115526;28;20040;-74
2020/12/25 06:19:24;;;;;;;0.03;0.03;;;2.60;93.50;;;;;;5114974;28;20071;-74
2020/12/25 06:21:56;;;;;;;0.25;0.10;;;2.60;93.40;;;;;;5114918;28;20047;-74
2020/12/25 06:24:29;;;;;;;0.10;0.00;;;2.70;93.40;;;;;;5114728;28;20094;-74
2020/12/25 06:26:59;;;;;;;0.65;0.17;;;2.70;93.40;;;;;;5114851;28;20039;-74
2020/12/25 06:29:26;;;;;;;0.70;0.17;;;2.70;93.40;;;;;;5114748;28;20565;-74
2020/12/25 06:31:55;;;;;;;0.00;0.00;;;2.80;93.30;;;;;;5114612;28;20493;-74
2020/12/25 06:34:21;;;;;;;2.00;0.20;;;2.80;93.30;;;;;;5114614;28;20040;-75
2020/12/25 06:36:48;;;;;;;0.10;0.10;;;2.90;93.20;;;;;;5114068;28;20036;-74
2020/12/25 06:39:17;;;;;;;0.47;0.20;;;2.90;93.20;;;;;;5096476;28;20048;-74
2020/12/25 06:41:43;;;;;;;0.20;0.10;;;2.90;93.20;;;;;;5114899;28;20913;-74
2020/12/25 06:44:13;;;;;;;0.05;0.05;;;2.90;93.20;;;;;;5079211;28;20415;-74
2020/12/25 06:46:46;;;;;;;0.68;0.20;;;2.90;93.20;;;;;;5114400;28;20089;-74
2020/12/25 06:49:15;;;;;;;0.47;0.20;;;2.90;93.20;;;;;;5096179;28;20094;-74
2020/12/25 06:51:42;;;;;;;0.10;0.03;;;3.00;93.20;;;;;;5114407;28;20031;-74
2020/12/25 06:54:17;;;;;;;0.13;0.10;;;3.00;93.10;;;;;;5114326;28;20039;-74
2020/12/25 06:56:46;;;;;;;0.30;0.15;;;3.00;93.10;;;;;;5114523;28;20040;-74
2020/12/25 06:59:15;;;;;;;0.73;0.17;;;3.00;93.10;;;;;;5079261;28;20396;-75
2020/12/25 07:01:43;;;;;;;0.10;0.10;;;3.00;93.10;;;;;;5114399;28;20036;-75
2020/12/25 07:04:26;;;;;;;0.43;0.10;;;3.00;93.10;;;;;;5114725;28;20362;-74
2020/12/25 07:06:56;;;;;;;0.52;0.10;;;3.10;93.10;;;;;;5096437;28;20050;-74
2020/12/25 07:09:22;;;;;;;0.75;0.10;;;3.00;93.00;;;;;;5114418;28;20516;-74
2020/12/25 07:11:50;;;;;;;0.32;0.10;;;3.10;93.10;;;;;;5095855;28;20378;-74
2020/12/25 07:14:16;;;;;;;0.20;0.20;;;3.10;93.10;;;;;;5114422;28;20079;-74
2020/12/25 07:16:42;;;;;;;1.20;0.20;;;3.10;93.00;;;;;;5114151;28;20089;-75
2020/12/25 07:19:08;;;;;;;0.90;0.35;;;3.10;93.10;;;;;;5114489;28;20491;-74
2020/12/25 07:21:35;;;;;;;1.45;0.10;;;3.10;93.10;;;;;;5095590;28;20039;-74
2020/12/25 07:24:01;;;;;;;0.30;0.10;;;3.20;93.10;;;;;;5114037;28;20043;-74
2020/12/25 07:26:28;;;;;;;0.03;0.03;;;3.20;93.00;;;;;;5113837;28;20046;-74
2020/12/25 07:28:54;;;;;;;0.32;0.10;;;3.10;93.00;;;;;;5079193;28;20100;-74
2020/12/25 07:31:20;;;;;;;0.20;0.20;;;3.10;93.10;;;;;;5113703;28;20048;-75
2020/12/25 07:33:55;;;;;;;0.22;0.10;;;3.00;93.10;;;;;;5113600;28;20398;-74
2020/12/25 07:36:23;;;;;;;0.20;0.10;;;3.00;93.40;;;;;;5113424;28;20040;-74
2020/12/25 07:38:59;;;;;;;0.88;0.10;;;3.00;93.10;;;;;;5114004;28;20412;-75
2020/12/25 07:41:25;;;;;;;1.55;0.20;;;2.90;93.10;;;;;;5113750;28;20118;-75
2020/12/25 07:43:56;;;;;;;0.90;0.20;;;3.00;93.10;;;;;;5113769;28;20055;-74
2020/12/25 07:46:23;;;;;;;0.33;0.10;;;2.90;93.20;;;;;;5113602;28;20047;-74
2020/12/25 07:48:53;;;;;;;0.35;0.20;;;2.80;93.20;;;;;;5112323;28;20043;-74
2020/12/25 07:51:19;;;;;;;0.45;0.10;;;2.80;93.50;;;;;;5113245;28;20485;-74
2020/12/25 07:53:50;;;;;;;0.05;0.05;;;2.80;93.20;;;;;;5095259;28;20402;-74
2020/12/25 07:56:19;;;;;;;0.20;0.20;;;2.80;93.20;;;;;;5113171;28;20035;-74
2020/12/25 07:58:47;;;;;;;0.10;0.10;;;2.70;93.30;;;;;;5113763;28;20402;-74
2020/12/25 08:01:14;;;;;;;0.38;0.08;;;2.80;93.30;;;;;;5113808;28;20043;-74
2020/12/25 08:03:40;;;;;;;0.65;0.15;;;2.80;93.30;;;;;;5113130;28;20448;-74
2020/12/25 08:06:05;;;;;;;0.63;0.30;;;2.80;93.30;;;;;;5113369;28;20047;-75
2020/12/25 08:08:31;;;;;;;0.57;0.20;;;2.80;93.30;;;;;;5113320;28;20130;-74
2020/12/25 08:10:59;;;;;;;0.63;0.20;;;2.90;93.30;;;;;;5113306;28;20056;-74
2020/12/25 08:13:26;;;;;;;0.20;0.05;;;2.90;93.30;;;;;;5113343;28;21902;-74
2020/12/25 08:15:52;;;;;;;0.10;0.10;;;3.00;93.50;;;;;;5113134;28;20048;-74
2020/12/25 08:18:18;;;;;;;0.20;0.10;;;2.90;93.20;;;;;;5113574;28;20078;-74
2020/12/25 08:20:44;;;;;;;0.00;0.00;;;2.90;93.20;;;;;;5113355;28;20443;-75
2020/12/25 08:23:09;;;;;;;0.10;0.10;;;3.00;93.20;;;;;;5094715;28;20078;-74
2020/12/25 08:25:35;;;;;;;0.47;0.00;;;2.80;93.20;;;;;;5113074;28;20489;-75
2020/12/25 08:28:01;;;;;;;0.30;0.00;;;2.90;93.20;;;;;;5112956;28;20118;-74
2020/12/25 08:30:27;;;;;;;0.10;0.10;;;2.90;93.30;;;;;;5113226;28;20085;-74
2020/12/25 08:32:58;;;;;;;0.25;0.10;;;3.00;93.30;;;;;;5095187;28;20089;-74
2020/12/25 08:35:27;;;;;;;0.10;0.00;;;2.90;93.20;;;;;;5094479;28;20497;-74
2020/12/25 08:37:55;;;;;;;0.15;0.00;;;3.00;93.20;;;;;;5094574;28;20035;-74
2020/12/25 08:40:22;;;;;;;0.20;0.10;;;3.00;93.20;;;;;;5113149;28;20032;-74
2020/12/25 08:42:49;;;;;;;0.10;0.10;;;3.00;93.20;;;;;;5095103;28;20028;-74
2020/12/25 08:45:18;;;;;;;0.10;0.10;;;3.10;93.20;;;;;;5112753;28;20040;-74
2020/12/25 08:47:44;;;;;;;0.08;0.08;;;3.20;93.20;;;;;;5113201;28;20177;-74
2020/12/25 08:50:10;;;;;;;0.65;0.10;;;3.20;93.20;;;;;;5113129;28;20130;-74
2020/12/25 08:52:35;;;;;;;0.10;0.10;;;3.20;93.10;;;;;;5113114;28;20118;-74
2020/12/25 08:55:01;;;;;;;0.22;0.10;;;3.30;93.10;;;;;;5112597;28;20515;-74
2020/12/25 08:57:29;;;;;;;0.22;0.10;;;3.30;93.10;;;;;;5112463;28;20036;-75
2020/12/25 09:00:06;;;;;;;0.10;0.10;;;3.40;93.00;;;;;;5112570;28;20121;-75
2020/12/25 09:02:32;;;;;;;0.25;0.10;;;3.40;93.00;;;;;;5116191;28;20032;-75
2020/12/25 09:04:58;;;;;;;0.25;0.10;;;3.50;93.00;;;;;;5116498;28;20122;-74
2020/12/25 09:07:23;;;;;;;0.20;0.20;;;3.60;93.00;;;;;;5116589;28;20093;-74
2020/12/25 09:09:49;;;;;;;0.65;0.20;;;3.60;92.90;;;;;;5116104;28;20071;-75
2020/12/25 09:12:15;;;;;;;0.77;0.30;;;3.70;92.90;;;;;;5116518;28;20044;-74
2020/12/25 09:14:41;;;;;;;0.17;0.17;;;3.70;92.80;;;;;;5116449;28;20512;-74
2020/12/25 09:17:06;;;;;;;0.35;0.17;;;3.70;92.80;;;;;;5080951;28;20366;-74
2020/12/25 09:19:32;;;;;;;0.63;0.20;;;3.60;92.80;;;;;;5115843;28;20416;-72
2020/12/25 09:21:58;;;;;;;0.22;0.10;;;3.70;92.80;;;;;;5115728;28;20054;-74
2020/12/25 09:24:23;;;;;;;0.77;0.10;;;3.70;92.80;;;;;;5097844;28;20047;-74
2020/12/25 09:26:49;;;;;;;0.45;0.17;;;3.70;92.80;;;;;;5115843;28;20035;-74
2020/12/25 09:29:15;;;;;;;0.88;0.28;;;3.70;92.80;;;;;;5097428;28;20475;-74
2020/12/25 09:31:40;;;;;;;0.40;0.20;;;3.70;92.80;;;;;;5116092;28;20058;-75
2020/12/25 09:34:06;;;;;;;0.75;0.20;;;3.70;92.80;;;;;;5097436;28;20445;-74
2020/12/25 09:36:32;;;;;;;0.35;0.30;;;3.70;92.70;;;;;;5115916;28;20125;-74
2020/12/25 09:38:57;;;;;;;1.48;0.22;;;3.80;92.70;;;;;;5115905;28;20036;-74
2020/12/25 09:41:23;;;;;;;0.70;0.40;;;3.80;92.70;;;;;;5097545;28;20040;-74
2020/12/25 09:43:49;;;;;;;1.40;0.25;;;3.90;92.70;;;;;;5115451;28;20437;-75
2020/12/25 09:46:14;;;;;;;0.22;0.20;;;3.90;92.70;;;;;;5097154;28;20043;-74
2020/12/25 09:48:40;;;;;;;0.45;0.13;;;3.90;92.70;;;;;;5080393;28;20493;-74
2020/12/25 09:51:06;;;;;;;0.45;0.20;;;4.00;92.70;;;;;;5115678;28;20039;-75
2020/12/25 09:53:31;;;;;;;0.77;0.30;;;4.00;92.70;;;;;;5115286;28;20051;-74
2020/12/25 09:55:57;;;;;;;0.98;0.30;;;4.10;92.70;;;;;;5097068;28;20031;-74
2020/12/25 09:58:23;;;;;;;0.60;0.40;;;4.20;92.60;;;;;;5097087;28;20035;-74
2020/12/25 10:00:48;;;;;;;0.10;0.10;;;4.30;92.50;;;;;;5115058;28;20024;-74
2020/12/25 10:03:14;;;;;;;0.43;0.20;;;4.30;92.50;;;;;;5115547;28;20396;-74
2020/12/25 10:05:40;;;;;;;0.10;0.10;;;4.40;92.40;;;;;;5097460;28;20074;-74
2020/12/25 10:08:05;;;;;;;1.27;0.20;;;4.40;92.40;;;;;;5115792;28;20440;-74
2020/12/25 10:10:32;;;;;;;0.25;0.10;;;4.50;92.40;;;;;;5115785;28;20063;-74
2020/12/25 10:12:58;;;;;;;0.28;0.20;;;4.60;92.40;;;;;;5096858;28;20052;-74
2020/12/25 10:15:24;;;;;;;0.35;0.20;;;4.70;92.30;;;;;;5115367;28;20606;-74
2020/12/25 10:17:50;;;;;;;0.20;0.10;;;4.80;92.30;;;;;;5096756;28;20051;-74
2020/12/25 10:20:16;;;;;;;0.13;0.13;;;5.00;92.20;;;;;;5115272;28;20058;-74
2020/12/25 10:22:41;;;;;;;0.10;0.10;;;5.10;92.10;;;;;;5115612;28;20063;-74
2020/12/25 10:25:07;;;;;;;0.77;0.20;;;5.10;92.30;;;;;;5080146;28;20075;-74
2020/12/25 10:27:33;;;;;;;1.55;0.20;;;5.20;92.00;;;;;;5080361;28;20447;-72
2020/12/25 10:29:59;;;;;;;0.10;0.00;;;5.20;92.00;;;;;;5096559;28;20122;-73
2020/12/25 10:32:24;;;;;;;1.30;0.30;;;5.20;92.00;;;;;;5115161;28;20040;-72
2020/12/25 10:34:50;;;;;;;0.55;0.20;;;5.10;92.00;;;;;;5114621;28;20504;-72
2020/12/25 10:37:15;;;;;;;0.43;0.22;;;5.10;92.00;;;;;;5114721;28;20189;-73
2020/12/25 10:39:41;;;;;;;0.10;0.10;;;5.20;92.00;;;;;;5114734;28;20051;-73
2020/12/25 10:42:09;;;;;;;1.65;0.28;;;5.20;92.00;;;;;;5096340;28;20047;-73
2020/12/25 10:44:35;;;;;;;1.70;0.40;;;5.30;92.00;;;;;;5114423;28;20051;-73
2020/12/25 10:47:01;;;;;;;1.23;0.35;;;5.40;92.00;;;;;;5114666;28;20050;-72
2020/12/25 10:49:27;;;;;;;3.05;0.80;;;5.30;91.90;;;;;;5114352;28;20039;-74
2020/12/25 10:51:53;;;;;;;0.85;0.22;;;5.30;91.90;;;;;;5114740;28;20082;-73
2020/12/25 10:54:19;;;;;;;0.40;0.10;;;5.30;91.90;;;;;;5096006;28;20043;-73
2020/12/25 10:56:44;;;;;;;1.48;0.63;;;5.20;91.90;;;;;;5096229;28;20397;-73
2020/12/25 10:59:10;;;;;;;0.13;0.10;;;5.20;91.90;;;;;;5114137;28;20059;-73
2020/12/25 11:01:38;;;;;;;0.40;0.10;;;5.20;91.90;;;;;;5114014;28;20063;-72
2020/12/25 11:04:04;;;;;;;0.22;0.15;;;5.20;92.00;;;;;;5114190;28;20032;-73
2020/12/25 11:06:37;;;;;;;0.40;0.20;;;5.20;92.00;;;;;;5096173;28;20460;-73
2020/12/25 11:09:05;;;;;;;0.85;0.32;;;5.20;92.00;;;;;;5095942;28;20043;-72
2020/12/25 11:11:33;;;;;;;1.38;0.25;;;5.30;92.00;;;;;;5114103;28;20489;-73
2020/12/25 11:14:00;;;;;;;0.30;0.10;;;5.20;91.90;;;;;;5113840;28;20096;-73
2020/12/25 11:16:30;;;;;;;0.10;0.10;;;5.30;91.90;;;;;;5114688;28;20048;-72
2020/12/25 11:18:58;;;;;;;1.65;0.20;;;5.40;91.90;;;;;;5113970;28;20032;-73
2020/12/25 11:21:25;;;;;;;0.77;0.20;;;5.40;91.90;;;;;;5114464;28;20040;-73
2020/12/25 11:23:52;;;;;;;0.30;0.20;;;5.40;91.80;;;;;;5094329;28;20085;-72
2020/12/25 11:26:27;;;;;;;0.30;0.10;;;5.40;91.80;;;;;;5113940;28;20427;-73
2020/12/25 11:28:55;;;;;;;0.20;0.13;;;5.50;91.70;;;;;;5114451;28;20504;-72
2020/12/25 11:31:22;;;;;;;0.32;0.20;;;5.50;91.70;;;;;;5114086;28;20036;-72
2020/12/25 11:33:49;;;;;;;0.43;0.10;;;5.50;91.60;;;;;;5114345;28;20054;-73
2020/12/25 11:36:16;;;;;;;0.10;0.10;;;5.60;91.70;;;;;;5114405;28;20465;-72
2020/12/25 11:38:43;;;;;;;0.40;0.10;;;5.60;91.60;;;;;;5095483;28;20156;-73
2020/12/25 11:41:10;;;;;;;0.45;0.20;;;5.70;91.60;;;;;;5113973;28;20051;-73
2020/12/25 11:43:37;;;;;;;0.43;0.10;;;5.70;91.50;;;;;;5113937;28;20062;-72
2020/12/25 11:46:04;;;;;;;0.00;0.00;;;5.80;91.50;;;;;;5095439;28;20097;-73
2020/12/25 11:48:30;;;;;;;0.90;0.10;;;5.80;91.50;;;;;;5113471;28;20069;-73
2020/12/25 11:50:56;;;;;;;0.10;0.10;;;5.90;91.50;;;;;;5095291;28;20122;-73
2020/12/25 11:53:22;;;;;;;0.13;0.10;;;5.90;91.40;;;;;;5113474;28;20050;-72
2020/12/25 11:55:48;;;;;;;1.80;0.20;;;6.00;91.30;;;;;;5113335;28;20545;-73
2020/12/25 11:58:15;;;;;;;0.25;0.20;;;5.90;91.30;;;;;;5113792;28;20079;-73
2020/12/25 12:00:41;;;;;;;0.55;0.20;;;5.90;91.30;;;;;;5113258;28;20051;-73
2020/12/25 12:03:07;;;;;;;0.43;0.28;;;5.90;91.30;;;;;;5113209;28;20048;-72
2020/12/25 12:05:33;;;;;;;0.93;0.30;;;5.90;91.60;;;;;;5113137;28;20063;-73
2020/12/25 12:07:59;;;;;;;0.68;0.22;;;6.00;91.30;;;;;;5113668;28;20044;-73
2020/12/25 12:10:25;;;;;;;0.65;0.20;;;6.10;91.30;;;;;;5113284;28;20043;-73
2020/12/25 12:12:51;;;;;;;1.40;0.65;;;6.20;91.30;;;;;;5113201;28;20398;-74
2020/12/25 12:15:16;;;;;;;0.85;0.40;;;6.20;91.10;;;;;;5113188;28;20043;-73
2020/12/25 12:17:42;;;;;;;1.65;0.20;;;6.20;91.10;;;;;;5113300;28;20047;-73
2020/12/25 12:20:08;;;;;;;0.10;0.10;;;6.20;91.10;;;;;;5078255;28;20027;-74
2020/12/25 12:22:33;;;;;;;0.25;0.20;;;6.30;91.10;;;;;;5112967;28;20081;-73
2020/12/25 12:25:05;;;;;;;0.40;0.30;;;6.40;91.10;;;;;;5112908;28;20046;-74
2020/12/25 12:27:31;;;;;;;1.25;0.40;;;6.50;91.10;;;;;;5112981;28;20047;-73
2020/12/25 12:29:57;;;;;;;1.55;0.22;;;6.50;91.00;;;;;;5113373;28;20032;-74
2020/12/25 12:32:23;;;;;;;3.10;0.38;;;6.60;90.90;;;;;;5112662;28;20546;-73
2020/12/25 12:34:49;;;;;;;1.13;0.30;;;6.60;90.90;;;;;;5112821;28;20580;-74
2020/12/25 12:37:14;;;;;;;0.47;0.20;;;6.70;90.90;;;;;;5094635;28;20044;-73
2020/12/25 12:39:40;;;;;;;1.77;0.50;;;6.70;90.80;;;;;;5112898;28;20067;-73
2020/12/25 12:42:06;;;;;;;1.20;0.30;;;6.70;90.80;;;;;;5094583;28;20126;-73
2020/12/25 12:44:32;;;;;;;0.60;0.13;;;6.70;90.70;;;;;;5112967;28;20047;-73
2020/12/25 12:46:57;;;;;;;0.63;0.28;;;6.80;90.80;;;;;;5112931;28;20040;-74
2020/12/25 12:49:23;;;;;;;1.20;0.20;;;6.80;90.80;;;;;;5112871;28;20047;-73
2020/12/25 12:51:49;;;;;;;0.40;0.15;;;6.90;90.80;;;;;;5113218;28;20050;-73
2020/12/25 12:54:14;;;;;;;1.67;0.40;;;7.00;90.70;;;;;;5113230;28;20377;-73